Time;durP1;ratioP1;P1;durP2;ratioP2;P2;SDS_P1;SDS_P2;PMS_P1;PMS_P2;Temp;Humidity;BMP_temperature;BMP_pressure;BME280_temperature;BME280_humidity;BME280_pressure;Samples;Min_cycle;Max_cycle;Signal;HPM_P1;HPM_P2
2023/05/31 00:00:05;;;;;;;2.72;0.93;;;10.80;69.50;;;;;;5095778;28;20100;-52
2023/05/31 00:02:31;;;;;;;2.90;1.10;;;10.70;67.30;;;;;;5105774;28;20027;-54
2023/05/31 00:04:56;;;;;;;1.95;1.00;;;10.60;67.60;;;;;;5095528;28;20078;-55
2023/05/31 00:07:22;;;;;;;1.73;0.98;;;10.60;67.80;;;;;;5086813;28;20036;-53
2023/05/31 00:09:47;;;;;;;1.95;1.08;;;10.50;68.30;;;;;;5088536;28;20027;-53
2023/05/31 00:12:13;;;;;;;4.80;1.40;;;10.50;68.40;;;;;;5096353;28;20070;-52
2023/05/31 00:14:38;;;;;;;1.67;1.13;;;10.50;68.40;;;;;;5091595;28;20488;-52
2023/05/31 00:17:04;;;;;;;1.73;1.05;;;10.40;68.60;;;;;;5107670;28;20047;-55
2023/05/31 00:19:30;;;;;;;1.67;1.13;;;10.40;69.60;;;;;;5099096;28;20046;-54
2023/05/31 00:21:56;;;;;;;4.07;1.10;;;10.30;70.00;;;;;;5096987;28;20043;-54
2023/05/31 00:24:21;;;;;;;2.58;1.38;;;10.20;70.20;;;;;;5112393;28;20030;-52
2023/05/31 00:26:47;;;;;;;2.53;1.20;;;10.20;70.70;;;;;;5094301;28;20108;-50
2023/05/31 00:29:12;;;;;;;2.72;1.10;;;10.10;71.70;;;;;;5107697;28;20028;-50
2023/05/31 00:31:37;;;;;;;2.20;0.95;;;10.10;71.60;;;;;;5100908;28;20031;-52
2023/05/31 00:34:03;;;;;;;2.85;1.50;;;10.10;72.70;;;;;;5090274;28;20039;-53
2023/05/31 00:36:28;;;;;;;5.35;1.35;;;10.00;72.80;;;;;;5109187;28;20016;-50
2023/05/31 00:38:54;;;;;;;5.47;1.27;;;10.00;73.30;;;;;;5101113;28;20027;-52
2023/05/31 00:41:20;;;;;;;2.78;1.20;;;9.90;74.50;;;;;;5096549;28;20051;-52
2023/05/31 00:43:45;;;;;;;1.83;1.25;;;9.80;74.40;;;;;;5109876;28;20115;-53
2023/05/31 00:46:31;;;;;;;2.97;1.55;;;9.80;74.80;;;;;;5092054;28;20027;-52
2023/05/31 00:48:57;;;;;;;2.80;1.10;;;9.70;75.30;;;;;;5109466;28;20036;-54
2023/05/31 00:51:25;;;;;;;2.30;1.10;;;9.70;76.00;;;;;;5091945;28;20040;-53
2023/05/31 00:53:51;;;;;;;2.75;1.30;;;9.60;76.10;;;;;;5108898;28;20498;-54
2023/05/31 00:56:18;;;;;;;2.40;1.13;;;9.60;78.20;;;;;;5090613;28;20447;-54
2023/05/31 00:58:45;;;;;;;1.75;1.05;;;9.50;78.70;;;;;;5109608;28;20216;-54
2023/05/31 01:01:13;;;;;;;3.42;1.30;;;9.50;78.40;;;;;;5089507;28;20036;-54
2023/05/31 01:03:39;;;;;;;2.42;1.33;;;9.50;78.90;;;;;;5100292;28;20024;-52
2023/05/31 01:06:05;;;;;;;2.70;1.20;;;9.40;78.70;;;;;;5105361;28;20024;-49
2023/05/31 01:08:31;;;;;;;4.03;1.30;;;9.40;79.40;;;;;;5091409;28;20020;-51
2023/05/31 01:11:02;;;;;;;2.35;1.33;;;9.30;79.50;;;;;;5099424;28;20078;-53
2023/05/31 01:13:44;;;;;;;2.40;1.30;;;9.30;80.70;;;;;;5071338;28;20016;-52
2023/05/31 01:16:16;;;;;;;2.83;1.30;;;9.20;81.10;;;;;;5111133;28;20032;-54
2023/05/31 01:18:49;;;;;;;2.05;1.40;;;9.20;81.20;;;;;;5075287;28;20306;-54
2023/05/31 01:21:17;;;;;;;1.40;0.85;;;9.20;83.20;;;;;;5109551;28;20076;-53
2023/05/31 01:24:13;;;;;;;2.78;1.17;;;9.10;83.40;;;;;;5091740;28;20050;-52
2023/05/31 01:26:45;;;;;;;1.95;1.02;;;9.10;85.10;;;;;;5108974;28;20044;-54
2023/05/31 01:29:14;;;;;;;2.25;1.40;;;9.00;85.30;;;;;;5086202;28;20030;-50
2023/05/31 01:31:41;;;;;;;1.38;1.05;;;9.00;85.80;;;;;;5101454;28;20020;-49
2023/05/31 01:34:07;;;;;;;1.55;1.10;;;9.00;90.40;;;;;;5108154;28;20047;-50
2023/05/31 01:36:32;;;;;;;3.22;1.50;;;8.90;87.50;;;;;;5099081;28;20078;-54
2023/05/31 01:38:58;;;;;;;3.00;1.40;;;8.90;88.50;;;;;;5090761;28;20035;-52
2023/05/31 01:41:27;;;;;;;2.60;1.35;;;8.80;88.00;;;;;;5107970;28;20055;-50
2023/05/31 01:43:53;;;;;;;3.28;1.50;;;8.80;88.70;;;;;;5111171;28;20027;-51
2023/05/31 01:46:20;;;;;;;2.00;0.98;;;8.70;88.30;;;;;;5090344;28;20020;-52
2023/05/31 01:48:46;;;;;;;2.78;1.17;;;8.70;88.80;;;;;;5106536;28;20479;-51
2023/05/31 01:51:14;;;;;;;2.92;1.48;;;8.70;89.80;;;;;;5088931;28;20392;-52
2023/05/31 01:53:40;;;;;;;2.00;1.23;;;8.60;88.80;;;;;;5101085;28;20027;-54
2023/05/31 01:56:08;;;;;;;3.25;1.40;;;8.60;88.80;;;;;;5109605;28;20080;-53
2023/05/31 01:58:36;;;;;;;3.20;1.40;;;8.50;90.10;;;;;;5110230;28;20020;-53
2023/05/31 02:01:02;;;;;;;1.98;1.00;;;8.50;90.30;;;;;;5089805;28;20035;-51
2023/05/31 02:03:28;;;;;;;2.63;1.35;;;8.50;91.40;;;;;;5095759;28;20023;-55
2023/05/31 02:06:00;;;;;;;5.45;1.75;;;8.40;91.60;;;;;;5092272;28;20032;-51
2023/05/31 02:08:27;;;;;;;3.35;1.60;;;8.40;92.60;;;;;;5095859;28;20038;-51
2023/05/31 02:10:53;;;;;;;1.98;1.20;;;8.40;93.30;;;;;;5108139;28;20118;-52
2023/05/31 02:13:20;;;;;;;3.33;1.25;;;8.30;92.90;;;;;;5108749;28;20496;-51
2023/05/31 02:15:46;;;;;;;2.70;1.48;;;8.30;94.00;;;;;;5093026;28;20073;-54
2023/05/31 02:18:12;;;;;;;3.15;1.60;;;8.30;93.10;;;;;;5109240;28;20042;-52
2023/05/31 02:20:38;;;;;;;3.30;1.02;;;8.20;92.60;;;;;;5091924;28;20479;-55
2023/05/31 02:23:03;;;;;;;3.92;1.30;;;8.20;92.60;;;;;;5097044;28;20028;-48
2023/05/31 02:25:29;;;;;;;3.08;1.42;;;8.20;92.90;;;;;;5107154;28;20084;-54
2023/05/31 02:27:54;;;;;;;3.92;1.50;;;8.20;92.50;;;;;;5109867;28;20473;-53
2023/05/31 02:30:20;;;;;;;3.70;1.30;;;8.10;92.30;;;;;;5092556;28;20026;-52
2023/05/31 02:32:45;;;;;;;1.85;1.15;;;8.00;94.70;;;;;;5092695;28;20066;-55
2023/05/31 02:35:11;;;;;;;3.70;1.52;;;8.00;98.50;;;;;;5102965;28;20047;-53
2023/05/31 02:37:39;;;;;;;3.70;1.50;;;8.00;96.20;;;;;;5089457;28;20077;-53
2023/05/31 02:40:08;;;;;;;2.92;1.35;;;8.00;94.80;;;;;;5096214;28;20027;-52
2023/05/31 02:42:39;;;;;;;2.97;1.40;;;8.00;95.40;;;;;;5105656;28;20027;-54
2023/05/31 02:45:05;;;;;;;2.80;1.30;;;7.90;96.00;;;;;;5103932;28;20030;-51
2023/05/31 02:47:30;;;;;;;2.55;1.40;;;7.90;96.40;;;;;;5090443;28;20015;-52
2023/05/31 02:49:56;;;;;;;3.10;1.25;;;7.90;95.70;;;;;;5109165;28;20028;-52
2023/05/31 02:52:23;;;;;;;3.33;1.40;;;7.90;95.20;;;;;;5096608;28;20426;-53
2023/05/31 02:54:49;;;;;;;2.60;1.58;;;7.80;94.80;;;;;;5089216;28;20036;-50
2023/05/31 02:57:15;;;;;;;1.92;1.38;;;7.80;94.60;;;;;;5106458;28;20208;-50
2023/05/31 02:59:42;;;;;;;3.85;1.50;;;7.80;97.40;;;;;;5089216;28;20123;-53
2023/05/31 03:02:08;;;;;;;5.38;1.60;;;7.80;96.70;;;;;;5106671;28;20035;-55
2023/05/31 03:04:33;;;;;;;2.25;1.42;;;7.80;98.30;;;;;;5090751;28;20055;-50
2023/05/31 03:06:59;;;;;;;1.67;1.30;;;7.80;97.00;;;;;;5104685;28;20031;-53
2023/05/31 03:09:25;;;;;;;3.28;1.35;;;7.80;96.10;;;;;;5089542;28;20024;-52
2023/05/31 03:11:50;;;;;;;2.30;1.30;;;7.80;95.50;;;;;;5094651;28;20153;-52
2023/05/31 03:14:16;;;;;;;2.65;1.45;;;7.80;95.50;;;;;;5101235;28;20024;-56
2023/05/31 03:16:42;;;;;;;3.10;2.05;;;7.80;95.50;;;;;;5080557;28;20513;-55
2023/05/31 03:19:08;;;;;;;4.30;1.17;;;7.90;95.50;;;;;;5095368;28;20032;-52
2023/05/31 03:21:33;;;;;;;6.05;1.77;;;7.90;95.10;;;;;;5092158;28;20036;-52
2023/05/31 03:23:59;;;;;;;3.53;1.27;;;7.90;95.10;;;;;;5087394;28;20395;-54
2023/05/31 03:26:25;;;;;;;6.93;1.38;;;7.90;95.00;;;;;;5099009;28;20040;-53
2023/05/31 03:28:51;;;;;;;5.88;1.50;;;7.90;95.60;;;;;;5093850;28;20020;-55
2023/05/31 03:31:18;;;;;;;4.60;1.75;;;7.90;95.30;;;;;;5108683;28;20030;-55
2023/05/31 03:33:44;;;;;;;5.22;1.40;;;8.00;95.60;;;;;;5087445;28;20020;-54
2023/05/31 03:36:10;;;;;;;4.50;1.50;;;8.10;95.60;;;;;;5080125;28;20031;-52
2023/05/31 03:38:35;;;;;;;3.05;1.73;;;8.10;95.30;;;;;;5069186;28;20032;-54
2023/05/31 03:41:01;;;;;;;4.78;1.88;;;8.20;95.30;;;;;;5105978;28;20072;-55
2023/05/31 03:43:26;;;;;;;2.50;1.50;;;8.80;95.30;;;;;;5109404;28;20024;-56
2023/05/31 03:45:52;;;;;;;5.05;1.40;;;9.70;95.70;;;;;;5087487;28;20032;-56
2023/05/31 03:48:17;;;;;;;3.35;1.08;;;10.60;93.10;;;;;;5089349;28;20077;-55
2023/05/31 03:50:44;;;;;;;4.85;1.13;;;11.40;90.10;;;;;;5104373;28;20032;-52
2023/05/31 03:53:09;;;;;;;2.95;1.50;;;12.20;84.30;;;;;;5091715;28;20218;-54
2023/05/31 03:55:36;;;;;;;2.80;1.45;;;13.10;80.50;;;;;;5109211;28;20616;-55
2023/05/31 03:58:02;;;;;;;2.28;1.17;;;13.90;76.70;;;;;;5093017;28;20021;-56
2023/05/31 04:00:28;;;;;;;2.58;1.55;;;14.60;73.50;;;;;;5109076;28;20039;-55
2023/05/31 04:02:53;;;;;;;4.70;1.30;;;15.20;69.50;;;;;;5092657;28;20028;-55
2023/05/31 04:05:19;;;;;;;2.33;1.55;;;15.90;67.30;;;;;;5102756;28;20508;-52
2023/05/31 04:07:45;;;;;;;1.75;1.38;;;16.50;64.70;;;;;;5090853;28;20032;-48
2023/05/31 04:10:10;;;;;;;3.47;1.30;;;17.10;63.00;;;;;;5112503;28;20020;-53
2023/05/31 04:12:36;;;;;;;2.38;1.23;;;17.60;60.90;;;;;;5091522;28;20519;-55
2023/05/31 04:15:02;;;;;;;4.40;1.58;;;18.10;57.90;;;;;;5108036;28;20055;-50
2023/05/31 04:17:27;;;;;;;2.38;1.33;;;18.60;55.60;;;;;;5089479;28;20111;-53
2023/05/31 04:19:52;;;;;;;1.60;1.20;;;19.10;53.50;;;;;;5110671;28;20562;-54
2023/05/31 04:22:18;;;;;;;3.40;1.52;;;19.60;52.40;;;;;;5094589;28;20093;-52
2023/05/31 04:24:44;;;;;;;1.90;1.13;;;20.00;49.60;;;;;;5112015;28;20650;-55
2023/05/31 04:27:10;;;;;;;3.28;1.52;;;20.50;46.70;;;;;;5090285;28;20492;-53
2023/05/31 04:29:35;;;;;;;4.68;1.63;;;21.10;44.00;;;;;;5097725;28;20108;-51
2023/05/31 04:32:01;;;;;;;2.28;1.25;;;21.60;41.40;;;;;;5111171;28;20118;-55
2023/05/31 04:34:26;;;;;;;2.65;1.35;;;22.00;39.60;;;;;;5090555;28;20043;-53
2023/05/31 04:36:52;;;;;;;1.77;1.00;;;22.40;37.40;;;;;;5112020;28;20039;-53
2023/05/31 04:39:20;;;;;;;4.80;1.58;;;22.90;35.40;;;;;;5088471;28;20627;-52
2023/05/31 04:45:08;;;;;;;2.90;1.83;;;23.70;19.30;;;;;;5086362;28;20175;-51
2023/05/31 04:47:33;;;;;;;1.92;1.55;;;24.00;26.10;;;;;;5111689;28;20035;-53
2023/05/31 04:50:00;;;;;;;2.72;1.30;;;24.20;23.20;;;;;;5090460;28;20036;-51
2023/05/31 04:52:28;;;;;;;3.65;1.30;;;24.20;21.90;;;;;;5093406;28;20035;-54
2023/05/31 04:54:55;;;;;;;2.83;1.60;;;24.60;21.70;;;;;;5093689;28;20073;-52
2023/05/31 04:57:21;;;;;;;2.80;1.45;;;24.90;20.20;;;;;;5089875;28;20035;-52
2023/05/31 04:59:46;;;;;;;1.90;1.48;;;25.30;13.70;;;;;;5111016;28;20083;-50
2023/05/31 05:02:12;;;;;;;2.80;1.60;;;25.70;18.20;;;;;;5095428;28;20043;-49
2023/05/31 05:04:37;;;;;;;1.75;1.20;;;26.00;17.00;;;;;;5109902;28;20410;-52
2023/05/31 05:07:03;;;;;;;2.47;1.38;;;26.40;16.10;;;;;;5084809;28;20035;-53
2023/05/31 05:09:28;;;;;;;2.38;1.42;;;26.90;15.10;;;;;;5097067;28;20036;-54
2023/05/31 05:11:55;;;;;;;1.83;1.35;;;27.30;14.10;;;;;;5090320;28;20063;-53
2023/05/31 05:14:21;;;;;;;4.60;1.65;;;27.60;12.80;;;;;;5092801;28;20047;-54
2023/05/31 05:16:46;;;;;;;4.03;1.60;;;27.60;8.60;;;;;;5072675;28;20527;-56
2023/05/31 05:19:12;;;;;;;3.22;1.63;;;27.90;10.00;;;;;;5099443;28;20032;-54
2023/05/31 05:21:37;;;;;;;3.95;1.50;;;28.00;9.00;;;;;;5087449;28;20045;-53
2023/05/31 05:24:03;;;;;;;2.78;1.52;;;28.30;5.20;;;;;;5090897;28;20201;-51
2023/05/31 05:26:28;;;;;;;3.33;1.70;;;28.30;6.30;;;;;;5099823;28;20058;-53
2023/05/31 05:28:54;;;;;;;10.02;2.15;;;28.40;7.40;;;;;;5104091;28;20032;-54
2023/05/31 05:31:19;;;;;;;2.58;1.40;;;28.50;5.90;;;;;;5089742;28;20556;-54
2023/05/31 05:33:45;;;;;;;5.22;1.58;;;28.40;6.20;;;;;;5107197;28;20629;-56
2023/05/31 05:36:10;;;;;;;2.03;1.63;;;28.90;5.40;;;;;;5109968;28;20024;-51
2023/05/31 05:38:36;;;;;;;3.38;1.70;;;29.00;4.20;;;;;;5089292;28;20093;-54
2023/05/31 05:41:02;;;;;;;4.00;1.77;;;28.90;4.60;;;;;;5108016;28;20046;-55
2023/05/31 05:43:29;;;;;;;3.33;1.75;;;29.30;4.30;;;;;;5098118;28;20392;-54
2023/05/31 05:45:55;;;;;;;2.15;1.30;;;29.70;3.20;;;;;;5091318;28;20019;-50
2023/05/31 05:48:20;;;;;;;4.38;1.58;;;30.10;2.80;;;;;;5109794;28;20018;-52
2023/05/31 05:50:46;;;;;;;2.78;1.70;;;30.60;3.20;;;;;;5087926;28;20054;-52
2023/05/31 05:53:11;;;;;;;3.08;1.50;;;31.10;2.40;;;;;;5108843;28;20156;-54
2023/05/31 05:55:38;;;;;;;3.38;1.70;;;31.00;1.00;;;;;;5088115;28;20518;-53
2023/05/31 05:58:03;;;;;;;2.33;1.33;;;30.70;1.60;;;;;;5109597;28;20713;-51
2023/05/31 06:00:29;;;;;;;2.35;1.42;;;31.20;1.30;;;;;;5097994;28;20085;-55
2023/05/31 06:02:54;;;;;;;2.55;1.30;;;31.10;1.00;;;;;;5089481;28;20040;-52
2023/05/31 06:05:25;;;;;;;3.10;1.67;;;31.40;1.10;;;;;;5091901;28;20054;-54
2023/05/31 06:07:51;;;;;;;2.55;1.63;;;31.80;1.00;;;;;;5069442;28;20039;-54
2023/05/31 06:10:17;;;;;;;2.85;1.35;;;32.30;1.00;;;;;;5106232;28;20030;-55
2023/05/31 06:12:43;;;;;;;4.15;1.67;;;33.10;1.00;;;;;;5089833;28;20123;-52
2023/05/31 06:15:09;;;;;;;3.70;1.50;;;32.80;1.00;;;;;;5105687;28;20055;-52
2023/05/31 06:17:34;;;;;;;2.78;1.30;;;32.80;1.00;;;;;;5089378;28;20032;-53
2023/05/31 06:20:03;;;;;;;1.92;1.40;;;33.30;1.00;;;;;;5106231;28;20077;-55
2023/05/31 06:22:28;;;;;;;2.13;1.73;;;34.30;1.00;;;;;;5108855;28;20475;-56
2023/05/31 06:24:57;;;;;;;2.08;1.50;;;34.90;1.00;;;;;;5092755;28;20093;-57
2023/05/31 06:27:23;;;;;;;2.15;1.45;;;35.40;1.00;;;;;;5108908;28;20475;-55
2023/05/31 06:29:54;;;;;;;2.15;1.15;;;35.60;1.00;;;;;;5092057;28;20102;-56
2023/05/31 06:32:20;;;;;;;1.95;1.40;;;36.10;1.00;;;;;;5108922;28;20124;-53
2023/05/31 06:34:46;;;;;;;3.55;1.40;;;35.90;1.00;;;;;;5091542;28;20031;-54
2023/05/31 06:37:12;;;;;;;1.88;1.58;;;36.40;1.00;;;;;;5108565;28;20019;-54
2023/05/31 06:39:37;;;;;;;2.58;1.50;;;37.00;1.00;;;;;;5088941;28;20019;-54
2023/05/31 06:42:03;;;;;;;3.00;1.60;;;36.60;1.00;;;;;;5108732;28;20015;-52
2023/05/31 06:44:28;;;;;;;2.60;1.48;;;36.60;1.00;;;;;;5088837;28;20089;-54
2023/05/31 06:46:54;;;;;;;2.70;1.30;;;37.20;1.00;;;;;;5108633;28;20047;-54
2023/05/31 06:49:19;;;;;;;2.08;1.60;;;37.60;1.00;;;;;;5087651;28;20449;-58
2023/05/31 06:51:45;;;;;;;3.35;1.50;;;37.40;1.00;;;;;;5108310;28;20408;-55
2023/05/31 06:54:10;;;;;;;3.58;1.45;;;37.20;1.00;;;;;;5088776;28;20031;-54
2023/05/31 06:56:39;;;;;;;2.08;1.30;;;36.90;1.00;;;;;;5096993;28;20032;-56
2023/05/31 06:59:04;;;;;;;2.47;1.30;;;37.50;1.00;;;;;;5107564;28;20028;-55
2023/05/31 07:01:30;;;;;;;3.28;1.40;;;38.10;1.00;;;;;;5093169;28;20019;-53
2023/05/31 07:03:55;;;;;;;1.67;1.40;;;38.80;1.00;;;;;;5108339;28;20391;-49
2023/05/31 07:06:21;;;;;;;2.20;1.42;;;39.50;1.00;;;;;;5088516;28;20023;-54
2023/05/31 07:08:47;;;;;;;2.78;1.60;;;39.90;1.00;;;;;;5108275;28;20087;-53
2023/05/31 07:11:13;;;;;;;2.47;1.60;;;40.30;1.00;;;;;;5090517;28;20032;-52
2023/05/31 07:13:38;;;;;;;2.70;1.50;;;40.30;1.00;;;;;;5106454;28;20714;-54
2023/05/31 07:16:04;;;;;;;7.40;1.67;;;40.50;1.00;;;;;;5088084;28;20028;-53
2023/05/31 07:18:30;;;;;;;1.58;1.40;;;40.80;1.00;;;;;;5105654;28;20038;-51
2023/05/31 07:20:56;;;;;;;2.08;1.30;;;41.00;1.00;;;;;;5088337;28;20055;-52
2023/05/31 07:23:23;;;;;;;3.33;1.20;;;41.40;1.00;;;;;;5105895;28;20020;-52
2023/05/31 07:25:49;;;;;;;2.47;1.20;;;41.70;1.00;;;;;;5103414;28;20036;-54
2023/05/31 07:28:14;;;;;;;2.22;1.23;;;41.60;1.00;;;;;;5088699;28;20038;-52
2023/05/31 07:30:40;;;;;;;2.55;1.40;;;41.40;1.00;;;;;;5091861;28;20089;-48
2023/05/31 07:33:05;;;;;;;3.67;1.35;;;40.40;1.00;;;;;;5109451;28;20688;-54
2023/05/31 07:35:31;;;;;;;2.55;1.48;;;40.40;1.00;;;;;;5100747;28;20047;-53
2023/05/31 07:37:56;;;;;;;2.75;1.40;;;40.60;1.00;;;;;;5090337;28;20081;-54
2023/05/31 07:40:21;;;;;;;2.15;1.45;;;40.70;1.00;;;;;;5095409;28;20760;-53
2023/05/31 07:42:47;;;;;;;2.35;1.45;;;41.10;1.00;;;;;;5111894;28;20032;-52
2023/05/31 07:45:12;;;;;;;1.45;1.13;;;41.10;1.00;;;;;;5092666;28;20032;-53
2023/05/31 07:47:38;;;;;;;2.85;1.65;;;41.30;1.00;;;;;;5110375;28;20039;-48
2023/05/31 07:50:04;;;;;;;3.83;1.55;;;41.40;1.00;;;;;;5092146;28;20039;-51
2023/05/31 07:52:30;;;;;;;3.33;1.38;;;41.60;1.00;;;;;;5108942;28;20043;-52
2023/05/31 07:54:55;;;;;;;3.03;1.20;;;41.50;1.00;;;;;;5091915;28;20024;-51
2023/05/31 07:57:21;;;;;;;3.45;1.20;;;41.40;1.00;;;;;;5109210;28;20066;-54
2023/05/31 07:59:48;;;;;;;4.57;1.30;;;41.00;1.00;;;;;;5100674;28;20031;-52
2023/05/31 08:02:14;;;;;;;3.00;1.42;;;40.50;1.00;;;;;;5091649;28;20067;-50
2023/05/31 08:04:39;;;;;;;3.38;1.50;;;40.20;1.00;;;;;;5106791;28;20619;-52
2023/05/31 08:07:06;;;;;;;1.33;1.10;;;40.20;1.00;;;;;;5083774;28;20086;-53
2023/05/31 08:09:31;;;;;;;4.95;1.40;;;40.30;1.00;;;;;;5109033;28;20032;-50
2023/05/31 08:11:57;;;;;;;1.77;1.10;;;40.70;1.00;;;;;;5097709;28;20039;-53
2023/05/31 08:14:22;;;;;;;1.17;1.05;;;40.50;1.00;;;;;;5091513;28;20032;-55
2023/05/31 08:16:49;;;;;;;2.05;1.50;;;40.70;1.00;;;;;;5108462;28;20023;-53
2023/05/31 08:19:14;;;;;;;3.05;1.25;;;40.80;1.00;;;;;;5110191;28;20495;-55
2023/05/31 08:21:40;;;;;;;2.17;1.10;;;40.70;1.00;;;;;;5095464;28;20032;-53
2023/05/31 08:24:06;;;;;;;3.03;1.27;;;40.70;1.00;;;;;;5109173;28;20106;-53
2023/05/31 08:26:32;;;;;;;2.22;1.40;;;40.40;1.00;;;;;;5100732;28;20085;-54
2023/05/31 08:28:58;;;;;;;3.25;1.33;;;39.50;1.00;;;;;;5108394;28;21739;-50
2023/05/31 08:31:24;;;;;;;2.58;1.45;;;38.80;1.00;;;;;;5111038;28;20031;-54
2023/05/31 08:33:54;;;;;;;1.92;1.20;;;38.50;1.00;;;;;;5090457;28;20078;-53
2023/05/31 08:36:21;;;;;;;2.65;1.10;;;38.50;1.00;;;;;;5109360;28;20068;-54
2023/05/31 08:38:46;;;;;;;1.20;1.00;;;38.20;1.00;;;;;;5090324;28;20060;-55
2023/05/31 08:41:12;;;;;;;3.67;1.20;;;37.80;1.00;;;;;;5096498;28;20063;-52
2023/05/31 08:43:39;;;;;;;1.33;1.02;;;37.40;1.00;;;;;;5089575;28;20422;-54
2023/05/31 08:46:07;;;;;;;2.72;1.48;;;37.10;1.00;;;;;;5099002;28;20028;-53
2023/05/31 08:48:56;;;;;;;2.45;1.15;;;36.20;1.00;;;;;;5090532;28;20027;-53
2023/05/31 08:51:24;;;;;;;3.05;1.33;;;35.90;1.00;;;;;;5081052;28;20024;-54
2023/05/31 08:53:51;;;;;;;2.67;1.50;;;35.80;1.00;;;;;;5110181;28;20019;-52
2023/05/31 08:56:18;;;;;;;3.80;1.20;;;35.80;1.00;;;;;;5088023;28;20416;-50
2023/05/31 09:02:10;;;;;;;3.90;1.48;;;35.20;1.00;;;;;;5063703;28;20063;-52
2023/05/31 09:04:35;;;;;;;2.25;1.20;;;34.00;1.00;;;;;;5066306;28;20059;-53
2023/05/31 09:07:01;;;;;;;2.40;1.33;;;33.30;1.00;;;;;;5043891;28;20064;-54
2023/05/31 09:09:27;;;;;;;2.63;1.50;;;32.80;1.00;;;;;;5064205;28;20573;-59
2023/05/31 09:11:52;;;;;;;4.90;1.20;;;32.80;1.00;;;;;;5066909;28;20040;-58
2023/05/31 09:14:18;;;;;;;1.95;1.23;;;32.90;1.00;;;;;;5066807;28;20713;-49
2023/05/31 09:16:44;;;;;;;2.65;1.40;;;32.80;1.00;;;;;;5064660;28;20045;-50
2023/05/31 09:19:10;;;;;;;2.08;1.10;;;32.40;1.00;;;;;;5066784;28;20039;-50
2023/05/31 09:21:40;;;;;;;5.72;1.35;;;32.20;1.00;;;;;;5064934;28;20044;-52
2023/05/31 09:24:06;;;;;;;1.17;0.90;;;31.90;1.00;;;;;;5066390;28;20071;-52
2023/05/31 09:26:32;;;;;;;2.67;1.17;;;31.90;1.00;;;;;;5056953;28;20047;-53
2023/05/31 09:28:58;;;;;;;2.22;1.10;;;32.00;1.00;;;;;;5066302;28;20033;-49
2023/05/31 09:31:25;;;;;;;1.48;1.10;;;32.20;1.00;;;;;;5048747;28;20495;-49
2023/05/31 09:33:51;;;;;;;2.42;1.40;;;32.20;1.00;;;;;;5108802;28;20043;-51
2023/05/31 09:36:28;;;;;;;2.17;1.20;;;32.30;1.00;;;;;;5088192;28;20024;-50
2023/05/31 09:39:00;;;;;;;2.22;1.30;;;32.50;1.00;;;;;;5089594;28;20029;-53
2023/05/31 09:41:27;;;;;;;1.90;1.17;;;32.60;1.00;;;;;;5089552;28;20036;-51
2023/05/31 09:43:52;;;;;;;3.50;1.33;;;32.50;1.00;;;;;;5108507;28;20024;-49
2023/05/31 09:46:19;;;;;;;2.00;1.20;;;32.50;1.00;;;;;;5087769;28;20024;-53
2023/05/31 09:48:56;;;;;;;3.95;1.33;;;32.60;1.00;;;;;;5106751;28;20031;-50
2023/05/31 09:51:21;;;;;;;2.80;0.95;;;32.50;1.00;;;;;;5068273;28;20115;-49
2023/05/31 09:53:49;;;;;;;2.15;1.17;;;32.10;1.00;;;;;;5106808;28;20106;-52
2023/05/31 09:56:21;;;;;;;2.08;1.25;;;32.00;1.00;;;;;;5089363;28;20115;-51
2023/05/31 09:58:47;;;;;;;2.63;1.10;;;32.00;1.00;;;;;;5085702;28;20047;-50
2023/05/31 10:01:15;;;;;;;3.90;1.27;;;31.80;1.00;;;;;;5108706;28;20031;-50
2023/05/31 10:03:40;;;;;;;1.58;1.02;;;31.60;1.00;;;;;;5087408;28;20032;-53
2023/05/31 10:06:07;;;;;;;1.55;1.05;;;31.50;1.00;;;;;;5101819;28;20110;-47
2023/05/31 10:08:33;;;;;;;2.05;1.00;;;31.40;1.00;;;;;;5087668;28;20078;-49
2023/05/31 10:11:00;;;;;;;1.65;0.90;;;31.10;1.00;;;;;;5108483;28;20142;-51
2023/05/31 10:13:30;;;;;;;1.67;1.17;;;30.70;1.00;;;;;;5087259;28;20150;-51
2023/05/31 10:15:57;;;;;;;3.42;1.33;;;30.40;1.00;;;;;;5108906;28;20399;-53
2023/05/31 10:18:30;;;;;;;1.50;1.00;;;29.70;1.00;;;;;;5086685;28;20020;-50
2023/05/31 10:21:22;;;;;;;1.90;1.02;;;29.30;1.00;;;;;;5108855;28;20027;-47
2023/05/31 10:24:08;;;;;;;3.33;1.30;;;28.90;1.00;;;;;;5066974;28;20115;-50
2023/05/31 10:27:01;;;;;;;2.90;1.10;;;28.40;1.00;;;;;;5087195;28;20035;-48
2023/05/31 10:29:30;;;;;;;2.35;0.90;;;28.60;1.00;;;;;;5108425;28;20051;-52
2023/05/31 10:32:06;;;;;;;2.45;1.23;;;28.70;1.00;;;;;;5090889;28;20122;-51
2023/05/31 10:34:32;;;;;;;2.40;1.48;;;28.80;1.00;;;;;;5108949;28;20522;-48
2023/05/31 10:36:58;;;;;;;1.30;0.77;;;28.70;1.00;;;;;;5091577;28;20118;-48
2023/05/31 10:39:53;;;;;;;3.92;1.35;;;28.70;1.00;;;;;;5108584;28;20095;-49
2023/05/31 10:42:48;;;;;;;1.45;1.10;;;28.50;1.00;;;;;;5075363;28;20036;-50
2023/05/31 10:45:27;;;;;;;2.10;0.80;;;28.40;1.00;;;;;;5068013;28;20028;-48
2023/05/31 10:48:16;;;;;;;1.05;0.80;;;28.40;1.00;;;;;;5093269;28;20024;-46
2023/05/31 10:50:56;;;;;;;1.30;0.88;;;28.40;1.00;;;;;;5067872;28;20086;-54
2023/05/31 10:53:27;;;;;;;2.50;0.80;;;28.30;1.00;;;;;;5089206;28;20047;-50
2023/05/31 10:55:52;;;;;;;3.00;0.80;;;28.20;1.00;;;;;;5068014;28;20086;-47
2023/05/31 10:58:28;;;;;;;3.92;1.10;;;28.20;1.00;;;;;;5088992;28;20032;-46
2023/05/31 11:00:56;;;;;;;1.02;0.77;;;28.20;1.00;;;;;;5067661;28;20036;-48
2023/05/31 11:03:23;;;;;;;3.05;0.80;;;28.20;1.00;;;;;;5088875;28;20024;-46
2023/05/31 11:05:56;;;;;;;2.30;0.80;;;27.80;1.00;;;;;;5092732;28;20024;-47
2023/05/31 11:08:22;;;;;;;1.55;0.98;;;27.30;1.00;;;;;;5089286;28;20028;-50
2023/05/31 11:10:48;;;;;;;1.73;1.02;;;26.90;1.00;;;;;;5107380;28;20360;-51
2023/05/31 11:13:14;;;;;;;1.35;0.88;;;26.90;1.00;;;;;;5086558;28;20065;-51
2023/05/31 11:15:44;;;;;;;2.45;0.90;;;26.90;1.00;;;;;;5107386;28;20072;-47
2023/05/31 11:18:15;;;;;;;3.35;1.17;;;27.00;1.00;;;;;;5086151;28;20032;-51
2023/05/31 11:20:41;;;;;;;1.83;0.98;;;26.90;1.00;;;;;;5067745;28;20021;-52
2023/05/31 11:23:19;;;;;;;2.53;0.90;;;27.10;1.00;;;;;;5090339;28;20024;-48
2023/05/31 11:26:05;;;;;;;1.50;1.02;;;27.10;1.00;;;;;;5091651;28;20043;-52
2023/05/31 11:28:31;;;;;;;;;;;27.20;1.00;;;;;;5082758;28;20028;-50
2023/05/31 11:30:56;;;;;;;1.50;1.00;;;27.30;1.00;;;;;;5085823;28;19947;-47
2023/05/31 11:33:23;;;;;;;2.58;0.95;;;27.30;1.00;;;;;;5107483;28;20083;-51
2023/05/31 11:35:48;;;;;;;1.15;0.80;;;27.20;1.00;;;;;;5086283;28;20020;-50
2023/05/31 11:38:15;;;;;;;0.98;0.70;;;26.80;1.00;;;;;;5107434;28;20024;-50
2023/05/31 11:40:40;;;;;;;1.45;0.80;;;26.70;1.00;;;;;;5086317;28;20543;-49
2023/05/31 11:43:08;;;;;;;1.02;0.70;;;26.60;1.00;;;;;;5106404;28;20220;-46
2023/05/31 11:45:39;;;;;;;1.15;0.82;;;26.60;1.00;;;;;;5084552;28;20024;-47
2023/05/31 11:48:30;;;;;;;1.98;0.80;;;26.60;1.00;;;;;;5065747;28;20024;-45
2023/05/31 11:50:56;;;;;;;2.15;0.55;;;26.30;1.00;;;;;;5090324;28;20123;-48
2023/05/31 11:53:21;;;;;;;1.15;0.70;;;25.90;1.00;;;;;;5107196;28;20352;-45
2023/05/31 11:55:49;;;;;;;2.53;0.70;;;25.70;1.00;;;;;;5088563;28;20028;-47
2023/05/31 11:58:18;;;;;;;3.05;0.77;;;25.60;1.00;;;;;;5087552;28;20028;-51
2023/05/31 12:00:47;;;;;;;1.42;0.70;;;25.70;1.00;;;;;;5105179;28;20407;-50
2023/05/31 12:03:16;;;;;;;2.05;0.88;;;25.90;1.00;;;;;;5087774;28;20058;-49
2023/05/31 12:05:49;;;;;;;3.38;1.08;;;25.90;1.00;;;;;;5084392;28;20099;-52
2023/05/31 12:08:14;;;;;;;1.30;0.80;;;25.50;1.00;;;;;;5081448;28;20032;-51
2023/05/31 12:10:41;;;;;;;2.95;0.98;;;25.20;1.00;;;;;;5070300;28;20576;-50
2023/05/31 12:13:06;;;;;;;1.58;1.10;;;25.10;1.00;;;;;;5074788;28;20020;-48
2023/05/31 12:15:32;;;;;;;2.28;1.15;;;25.10;1.00;;;;;;5083601;28;20032;-47
2023/05/31 12:18:00;;;;;;;0.90;0.70;;;25.30;1.00;;;;;;5083485;28;20492;-52
2023/05/31 12:20:30;;;;;;;2.00;0.82;;;25.40;1.00;;;;;;5081566;28;20313;-49
2023/05/31 12:23:09;;;;;;;1.65;1.02;;;25.50;1.00;;;;;;5091793;27;20020;-50
2023/05/31 12:25:35;;;;;;;0.80;0.57;;;25.20;1.00;;;;;;5085177;28;20131;-49
2023/05/31 12:28:02;;;;;;;1.02;0.82;;;25.30;1.00;;;;;;5068270;28;20540;-52
2023/05/31 12:30:27;;;;;;;3.05;1.00;;;25.20;1.00;;;;;;5085480;28;20036;-49
2023/05/31 12:32:53;;;;;;;1.15;0.95;;;25.00;1.00;;;;;;5094831;28;20024;-49
2023/05/31 12:35:18;;;;;;;1.00;0.88;;;24.90;1.00;;;;;;5089421;28;20104;-52
2023/05/31 12:37:44;;;;;;;2.08;0.90;;;24.70;1.00;;;;;;5105168;28;20030;-52
2023/05/31 12:40:11;;;;;;;1.08;0.85;;;24.70;1.00;;;;;;5086849;28;20020;-45
2023/05/31 12:42:37;;;;;;;0.73;0.65;;;24.70;1.00;;;;;;5075574;28;20028;-46
2023/05/31 12:45:04;;;;;;;1.33;0.60;;;24.70;1.00;;;;;;5088139;28;20032;-50
2023/05/31 12:47:29;;;;;;;1.20;0.77;;;24.70;1.00;;;;;;5076639;28;20044;-47
2023/05/31 12:50:06;;;;;;;1.02;0.80;;;24.70;1.00;;;;;;5096308;28;20032;-48
2023/05/31 12:52:33;;;;;;;1.77;0.70;;;24.70;1.00;;;;;;5066163;28;20074;-48
2023/05/31 12:55:00;;;;;;;2.78;0.80;;;24.70;1.00;;;;;;5087149;28;20434;-47
2023/05/31 12:57:26;;;;;;;0.93;0.85;;;24.50;1.00;;;;;;5074364;28;20024;-48
2023/05/31 13:00:05;;;;;;;3.13;1.13;;;24.20;1.00;;;;;;5087952;28;20040;-51
2023/05/31 13:02:31;;;;;;;1.67;0.88;;;24.20;1.00;;;;;;5075004;28;20817;-49